sensor_id;sensor_type;location;lat;lon;timestamp;temperature;humidity
13426;DHT22;6785;57.918;12.530;2022-12-18T00:00:44;1.90;99.90
13426;DHT22;6785;57.918;12.530;2022-12-18T00:03:12;1.90;99.90
13426;DHT22;6785;57.918;12.530;2022-12-18T00:05:47;1.90;99.90
13426;DHT22;6785;57.918;12.530;2022-12-18T00:08:14;1.90;99.90
13426;DHT22;6785;57.918;12.530;2022-12-18T00:10:41;1.80;99.90
13426;DHT22;6785;57.918;12.530;2022-12-18T00:13:08;1.80;99.90
13426;DHT22;6785;57.918;12.530;2022-12-18T00:15:35;1.80;99.90
13426;DHT22;6785;57.918;12.530;2022-12-18T00:18:02;1.80;99.90
13426;DHT22;6785;57.918;12.530;2022-12-18T00:20:29;1.70;99.90
13426;DHT22;6785;57.918;12.530;2022-12-18T00:22:57;1.80;99.90
13426;DHT22;6785;57.918;12.530;2022-12-18T00:25:24;1.80;99.90
13426;DHT22;6785;57.918;12.530;2022-12-18T00:27:51;1.70;99.90
13426;DHT22;6785;57.918;12.530;2022-12-18T00:30:17;1.80;99.90
13426;DHT22;6785;57.918;12.530;2022-12-18T00:32:44;1.70;99.90
13426;DHT22;6785;57.918;12.530;2022-12-18T00:35:11;1.80;99.90
13426;DHT22;6785;57.918;12.530;2022-12-18T00:37:38;1.80;99.90
13426;DHT22;6785;57.918;12.530;2022-12-18T00:40:07;1.70;99.90
13426;DHT22;6785;57.918;12.530;2022-12-18T00:42:34;1.70;99.90
13426;DHT22;6785;57.918;12.530;2022-12-18T00:45:18;1.60;99.90
13426;DHT22;6785;57.918;12.530;2022-12-18T00:47:45;1.60;99.90
13426;DHT22;6785;57.918;12.530;2022-12-18T00:50:12;1.60;99.90
13426;DHT22;6785;57.918;12.530;2022-12-18T00:52:40;1.60;99.90
13426;DHT22;6785;57.918;12.530;2022-12-18T00:55:09;1.60;99.90
13426;DHT22;6785;57.918;12.530;2022-12-18T00:57:36;1.60;99.90
13426;DHT22;6785;57.918;12.530;2022-12-18T01:00:03;1.60;99.90
13426;DHT22;6785;57.918;12.530;2022-12-18T01:02:30;1.50;99.90
13426;DHT22;6785;57.918;12.530;2022-12-18T01:04:57;1.50;99.90
13426;DHT22;6785;57.918;12.530;2022-12-18T01:07:23;1.50;99.90
13426;DHT22;6785;57.918;12.530;2022-12-18T01:09:50;1.50;99.90
13426;DHT22;6785;57.918;12.530;2022-12-18T01:12:18;1.50;99.90
13426;DHT22;6785;57.918;12.530;2022-12-18T01:14:47;1.50;99.90
13426;DHT22;6785;57.918;12.530;2022-12-18T01:17:13;1.50;99.90
13426;DHT22;6785;57.918;12.530;2022-12-18T01:19:40;1.50;99.90
13426;DHT22;6785;57.918;12.530;2022-12-18T01:22:07;1.50;99.90
13426;DHT22;6785;57.918;12.530;2022-12-18T01:24:34;1.40;99.90
13426;DHT22;6785;57.918;12.530;2022-12-18T01:27:00;1.50;99.90
13426;DHT22;6785;57.918;12.530;2022-12-18T01:29:29;1.50;99.90
13426;DHT22;6785;57.918;12.530;2022-12-18T01:31:56;1.50;99.90
13426;DHT22;6785;57.918;12.530;2022-12-18T01:34:23;1.50;99.90
13426;DHT22;6785;57.918;12.530;2022-12-18T01:36:50;1.50;99.90
13426;DHT22;6785;57.918;12.530;2022-12-18T01:39:18;1.50;99.90
13426;DHT22;6785;57.918;12.530;2022-12-18T01:41:45;1.50;99.90
13426;DHT22;6785;57.918;12.530;2022-12-18T01:44:58;1.50;99.90
13426;DHT22;6785;57.918;12.530;2022-12-18T01:47:30;1.50;99.90
13426;DHT22;6785;57.918;12.530;2022-12-18T01:50:00;1.50;99.90
13426;DHT22;6785;57.918;12.530;2022-12-18T01:52:30;1.60;99.90
13426;DHT22;6785;57.918;12.530;2022-12-18T01:54:58;1.50;99.90
13426;DHT22;6785;57.918;12.530;2022-12-18T01:57:26;1.50;99.90
13426;DHT22;6785;57.918;12.530;2022-12-18T01:59:59;1.50;99.90
13426;DHT22;6785;57.918;12.530;2022-12-18T02:02:27;1.50;99.90
13426;DHT22;6785;57.918;12.530;2022-12-18T02:04:55;1.50;99.90
13426;DHT22;6785;57.918;12.530;2022-12-18T02:07:26;1.50;99.90
13426;DHT22;6785;57.918;12.530;2022-12-18T02:10:00;1.50;99.90
13426;DHT22;6785;57.918;12.530;2022-12-18T02:12:33;1.40;99.90
13426;DHT22;6785;57.918;12.530;2022-12-18T02:15:09;1.40;99.90
13426;DHT22;6785;57.918;12.530;2022-12-18T02:17:43;1.40;99.90
13426;DHT22;6785;57.918;12.530;2022-12-18T02:20:18;1.40;99.90
13426;DHT22;6785;57.918;12.530;2022-12-18T02:22:56;1.40;99.90
13426;DHT22;6785;57.918;12.530;2022-12-18T02:25:37;1.40;99.90
13426;DHT22;6785;57.918;12.530;2022-12-18T02:28:12;1.40;99.90
13426;DHT22;6785;57.918;12.530;2022-12-18T02:30:40;1.40;99.90
13426;DHT22;6785;57.918;12.530;2022-12-18T02:33:09;1.50;99.90
13426;DHT22;6785;57.918;12.530;2022-12-18T02:35:40;1.40;99.90
13426;DHT22;6785;57.918;12.530;2022-12-18T02:38:07;1.40;99.90
13426;DHT22;6785;57.918;12.530;2022-12-18T02:40:36;1.40;99.90
13426;DHT22;6785;57.918;12.530;2022-12-18T02:43:08;1.40;99.90
13426;DHT22;6785;57.918;12.530;2022-12-18T02:45:35;1.40;99.90
13426;DHT22;6785;57.918;12.530;2022-12-18T02:48:02;1.40;99.90
13426;DHT22;6785;57.918;12.530;2022-12-18T02:50:35;1.50;99.90
13426;DHT22;6785;57.918;12.530;2022-12-18T02:53:13;1.50;99.90
13426;DHT22;6785;57.918;12.530;2022-12-18T02:55:54;1.50;99.90
13426;DHT22;6785;57.918;12.530;2022-12-18T02:58:31;1.50;99.90
13426;DHT22;6785;57.918;12.530;2022-12-18T03:01:03;1.50;99.90
13426;DHT22;6785;57.918;12.530;2022-12-18T03:03:37;1.50;99.90
13426;DHT22;6785;57.918;12.530;2022-12-18T03:06:08;1.60;99.90
13426;DHT22;6785;57.918;12.530;2022-12-18T03:08:39;1.60;99.90
13426;DHT22;6785;57.918;12.530;2022-12-18T03:11:08;1.60;99.90
13426;DHT22;6785;57.918;12.530;2022-12-18T03:13:40;1.60;99.90
13426;DHT22;6785;57.918;12.530;2022-12-18T03:16:11;1.60;99.90
13426;DHT22;6785;57.918;12.530;2022-12-18T03:18:44;1.60;99.90
13426;DHT22;6785;57.918;12.530;2022-12-18T03:21:14;1.60;99.90
13426;DHT22;6785;57.918;12.530;2022-12-18T03:23:46;1.60;99.90
13426;DHT22;6785;57.918;12.530;2022-12-18T03:26:16;1.60;99.90
13426;DHT22;6785;57.918;12.530;2022-12-18T03:28:48;1.60;99.90
13426;DHT22;6785;57.918;12.530;2022-12-18T03:31:16;1.60;99.90
13426;DHT22;6785;57.918;12.530;2022-12-18T03:33:47;1.70;99.90
13426;DHT22;6785;57.918;12.530;2022-12-18T03:36:17;1.70;99.90
13426;DHT22;6785;57.918;12.530;2022-12-18T03:38:43;1.70;99.90
13426;DHT22;6785;57.918;12.530;2022-12-18T03:41:17;1.70;99.90
13426;DHT22;6785;57.918;12.530;2022-12-18T03:43:50;1.70;99.90
13426;DHT22;6785;57.918;12.530;2022-12-18T03:46:26;1.70;99.90
13426;DHT22;6785;57.918;12.530;2022-12-18T03:48:59;1.70;99.90
13426;DHT22;6785;57.918;12.530;2022-12-18T03:51:34;1.70;99.90
13426;DHT22;6785;57.918;12.530;2022-12-18T03:54:04;1.70;99.90
13426;DHT22;6785;57.918;12.530;2022-12-18T03:56:37;1.70;99.90
13426;DHT22;6785;57.918;12.530;2022-12-18T03:59:07;1.70;99.90
13426;DHT22;6785;57.918;12.530;2022-12-18T04:01:42;1.70;99.90
13426;DHT22;6785;57.918;12.530;2022-12-18T04:04:11;1.80;99.90
13426;DHT22;6785;57.918;12.530;2022-12-18T04:06:40;1.80;99.90
13426;DHT22;6785;57.918;12.530;2022-12-18T04:09:07;1.80;99.90
13426;DHT22;6785;57.918;12.530;2022-12-18T04:11:34;1.80;99.90
13426;DHT22;6785;57.918;12.530;2022-12-18T04:14:01;1.80;99.90
13426;DHT22;6785;57.918;12.530;2022-12-18T04:16:29;1.80;99.90
13426;DHT22;6785;57.918;12.530;2022-12-18T04:18:56;1.80;99.90
13426;DHT22;6785;57.918;12.530;2022-12-18T04:21:23;1.80;99.90
13426;DHT22;6785;57.918;12.530;2022-12-18T04:23:50;1.90;99.90
13426;DHT22;6785;57.918;12.530;2022-12-18T04:26:16;1.90;99.90
13426;DHT22;6785;57.918;12.530;2022-12-18T04:28:43;1.90;99.90
13426;DHT22;6785;57.918;12.530;2022-12-18T04:31:10;1.90;99.90
13426;DHT22;6785;57.918;12.530;2022-12-18T04:33:38;1.90;99.90
13426;DHT22;6785;57.918;12.530;2022-12-18T04:36:05;2.00;99.90
13426;DHT22;6785;57.918;12.530;2022-12-18T04:38:32;2.00;99.90
13426;DHT22;6785;57.918;12.530;2022-12-18T04:40:59;2.00;99.90
13426;DHT22;6785;57.918;12.530;2022-12-18T04:43:25;2.00;99.90
13426;DHT22;6785;57.918;12.530;2022-12-18T04:45:52;2.00;99.90
13426;DHT22;6785;57.918;12.530;2022-12-18T04:48:19;2.00;99.90
13426;DHT22;6785;57.918;12.530;2022-12-18T04:50:48;2.00;99.90
13426;DHT22;6785;57.918;12.530;2022-12-18T04:53:14;2.00;99.90
13426;DHT22;6785;57.918;12.530;2022-12-18T04:55:41;2.00;99.90
13426;DHT22;6785;57.918;12.530;2022-12-18T04:58:08;2.00;99.90
13426;DHT22;6785;57.918;12.530;2022-12-18T05:00:34;2.00;99.90
13426;DHT22;6785;57.918;12.530;2022-12-18T05:03:02;2.10;99.90
13426;DHT22;6785;57.918;12.530;2022-12-18T05:05:28;2.10;99.90
13426;DHT22;6785;57.918;12.530;2022-12-18T05:07:56;2.10;99.90
13426;DHT22;6785;57.918;12.530;2022-12-18T05:10:23;2.10;99.90
13426;DHT22;6785;57.918;12.530;2022-12-18T05:12:50;2.10;99.90
13426;DHT22;6785;57.918;12.530;2022-12-18T05:15:27;2.10;99.90
13426;DHT22;6785;57.918;12.530;2022-12-18T05:17:54;2.20;99.90
13426;DHT22;6785;57.918;12.530;2022-12-18T05:20:21;2.20;99.90
13426;DHT22;6785;57.918;12.530;2022-12-18T05:22:47;2.20;99.90
13426;DHT22;6785;57.918;12.530;2022-12-18T05:25:16;2.30;99.90
13426;DHT22;6785;57.918;12.530;2022-12-18T05:27:43;2.30;99.90
13426;DHT22;6785;57.918;12.530;2022-12-18T05:30:11;2.30;99.90
13426;DHT22;6785;57.918;12.530;2022-12-18T05:32:38;2.30;99.90
13426;DHT22;6785;57.918;12.530;2022-12-18T05:35:07;2.30;99.90
13426;DHT22;6785;57.918;12.530;2022-12-18T05:37:34;2.30;99.90
13426;DHT22;6785;57.918;12.530;2022-12-18T05:40:01;2.30;99.90
13426;DHT22;6785;57.918;12.530;2022-12-18T05:42:29;2.30;99.90
13426;DHT22;6785;57.918;12.530;2022-12-18T05:44:56;2.30;99.90
13426;DHT22;6785;57.918;12.530;2022-12-18T05:47:23;2.30;99.90
13426;DHT22;6785;57.918;12.530;2022-12-18T05:49:50;2.30;99.90
13426;DHT22;6785;57.918;12.530;2022-12-18T05:52:17;2.40;99.90
13426;DHT22;6785;57.918;12.530;2022-12-18T05:54:43;2.40;99.90
13426;DHT22;6785;57.918;12.530;2022-12-18T05:57:10;2.40;99.90
13426;DHT22;6785;57.918;12.530;2022-12-18T05:59:38;2.40;99.90
13426;DHT22;6785;57.918;12.530;2022-12-18T06:02:05;2.40;99.90
13426;DHT22;6785;57.918;12.530;2022-12-18T06:04:31;2.40;99.90
13426;DHT22;6785;57.918;12.530;2022-12-18T06:06:58;2.40;99.90
13426;DHT22;6785;57.918;12.530;2022-12-18T06:09:25;2.50;99.90
13426;DHT22;6785;57.918;12.530;2022-12-18T06:11:52;2.40;99.90
13426;DHT22;6785;57.918;12.530;2022-12-18T06:14:19;2.50;99.90
13426;DHT22;6785;57.918;12.530;2022-12-18T06:16:47;2.50;99.90
13426;DHT22;6785;57.918;12.530;2022-12-18T06:19:15;2.40;99.90
13426;DHT22;6785;57.918;12.530;2022-12-18T06:21:42;2.50;99.90
13426;DHT22;6785;57.918;12.530;2022-12-18T06:24:09;2.50;99.90
13426;DHT22;6785;57.918;12.530;2022-12-18T06:26:37;2.50;99.90
13426;DHT22;6785;57.918;12.530;2022-12-18T06:29:04;2.50;99.90
13426;DHT22;6785;57.918;12.530;2022-12-18T06:31:31;2.50;99.90
13426;DHT22;6785;57.918;12.530;2022-12-18T06:33:59;2.40;99.90
13426;DHT22;6785;57.918;12.530;2022-12-18T06:36:29;2.50;99.90
13426;DHT22;6785;57.918;12.530;2022-12-18T06:38:56;2.50;99.90
13426;DHT22;6785;57.918;12.530;2022-12-18T06:41:23;2.50;99.90
13426;DHT22;6785;57.918;12.530;2022-12-18T06:43:50;2.60;99.90
13426;DHT22;6785;57.918;12.530;2022-12-18T06:46:17;2.50;99.90
13426;DHT22;6785;57.918;12.530;2022-12-18T06:48:47;2.60;99.90
13426;DHT22;6785;57.918;12.530;2022-12-18T06:51:17;2.60;99.90
13426;DHT22;6785;57.918;12.530;2022-12-18T06:53:44;2.60;99.90
13426;DHT22;6785;57.918;12.530;2022-12-18T06:56:11;2.60;99.90
13426;DHT22;6785;57.918;12.530;2022-12-18T06:58:38;2.60;99.90
13426;DHT22;6785;57.918;12.530;2022-12-18T07:01:06;2.60;99.90
13426;DHT22;6785;57.918;12.530;2022-12-18T07:03:33;2.70;99.90
13426;DHT22;6785;57.918;12.530;2022-12-18T07:06:00;2.70;99.90
13426;DHT22;6785;57.918;12.530;2022-12-18T07:08:28;2.70;99.90
13426;DHT22;6785;57.918;12.530;2022-12-18T07:10:55;2.70;99.90
13426;DHT22;6785;57.918;12.530;2022-12-18T07:13:22;2.70;99.90
13426;DHT22;6785;57.918;12.530;2022-12-18T07:15:49;2.70;99.90
13426;DHT22;6785;57.918;12.530;2022-12-18T07:18:16;2.70;99.90
13426;DHT22;6785;57.918;12.530;2022-12-18T07:20:42;2.70;99.90
13426;DHT22;6785;57.918;12.530;2022-12-18T07:23:09;2.70;99.90
13426;DHT22;6785;57.918;12.530;2022-12-18T07:25:37;2.70;99.90
13426;DHT22;6785;57.918;12.530;2022-12-18T07:28:05;2.70;99.90
13426;DHT22;6785;57.918;12.530;2022-12-18T07:30:31;2.80;99.90
13426;DHT22;6785;57.918;12.530;2022-12-18T07:32:58;2.80;99.90
13426;DHT22;6785;57.918;12.530;2022-12-18T07:35:25;2.80;99.90
13426;DHT22;6785;57.918;12.530;2022-12-18T07:37:52;2.70;99.90
13426;DHT22;6785;57.918;12.530;2022-12-18T07:40:18;2.70;99.90
13426;DHT22;6785;57.918;12.530;2022-12-18T07:42:46;2.80;99.90
13426;DHT22;6785;57.918;12.530;2022-12-18T07:45:13;2.80;99.90
13426;DHT22;6785;57.918;12.530;2022-12-18T07:47:40;2.80;99.90
13426;DHT22;6785;57.918;12.530;2022-12-18T07:50:07;2.80;99.90
13426;DHT22;6785;57.918;12.530;2022-12-18T07:52:34;2.80;99.90
13426;DHT22;6785;57.918;12.530;2022-12-18T07:55:01;2.80;99.90
13426;DHT22;6785;57.918;12.530;2022-12-18T07:57:28;2.80;99.90
13426;DHT22;6785;57.918;12.530;2022-12-18T07:59:56;2.80;99.90
13426;DHT22;6785;57.918;12.530;2022-12-18T08:02:22;2.80;99.90
13426;DHT22;6785;57.918;12.530;2022-12-18T08:04:49;2.80;99.90
13426;DHT22;6785;57.918;12.530;2022-12-18T08:07:16;2.80;99.90
13426;DHT22;6785;57.918;12.530;2022-12-18T08:09:43;2.80;99.90
13426;DHT22;6785;57.918;12.530;2022-12-18T08:12:09;2.80;99.90
13426;DHT22;6785;57.918;12.530;2022-12-18T08:14:36;2.80;99.90
13426;DHT22;6785;57.918;12.530;2022-12-18T08:17:04;2.80;99.90
13426;DHT22;6785;57.918;12.530;2022-12-18T08:19:31;2.90;99.90
13426;DHT22;6785;57.918;12.530;2022-12-18T08:21:57;2.90;99.90
13426;DHT22;6785;57.918;12.530;2022-12-18T08:24:24;2.90;99.90
13426;DHT22;6785;57.918;12.530;2022-12-18T08:26:51;2.90;99.90
13426;DHT22;6785;57.918;12.530;2022-12-18T08:29:18;2.90;99.90
13426;DHT22;6785;57.918;12.530;2022-12-18T08:31:44;2.90;99.90
13426;DHT22;6785;57.918;12.530;2022-12-18T08:34:12;3.00;99.90
13426;DHT22;6785;57.918;12.530;2022-12-18T08:36:40;3.00;99.90
13426;DHT22;6785;57.918;12.530;2022-12-18T08:39:06;3.00;99.90
13426;DHT22;6785;57.918;12.530;2022-12-18T08:41:33;3.00;99.90
13426;DHT22;6785;57.918;12.530;2022-12-18T08:44:00;3.00;99.90
13426;DHT22;6785;57.918;12.530;2022-12-18T08:46:44;3.00;99.90
13426;DHT22;6785;57.918;12.530;2022-12-18T08:49:12;3.00;99.90
13426;DHT22;6785;57.918;12.530;2022-12-18T08:51:39;3.00;99.90
13426;DHT22;6785;57.918;12.530;2022-12-18T08:54:06;3.00;99.90
13426;DHT22;6785;57.918;12.530;2022-12-18T08:56:33;3.00;99.90
13426;DHT22;6785;57.918;12.530;2022-12-18T08:59:00;3.00;99.90
13426;DHT22;6785;57.918;12.530;2022-12-18T09:01:27;3.10;99.90
13426;DHT22;6785;57.918;12.530;2022-12-18T09:03:53;3.10;99.90
13426;DHT22;6785;57.918;12.530;2022-12-18T09:06:22;3.00;99.90
13426;DHT22;6785;57.918;12.530;2022-12-18T09:08:49;3.10;99.90
13426;DHT22;6785;57.918;12.530;2022-12-18T09:11:20;3.10;99.90
13426;DHT22;6785;57.918;12.530;2022-12-18T09:13:47;3.10;99.90
13426;DHT22;6785;57.918;12.530;2022-12-18T09:16:14;3.10;99.90
13426;DHT22;6785;57.918;12.530;2022-12-18T09:18:40;3.10;99.90
13426;DHT22;6785;57.918;12.530;2022-12-18T09:21:08;3.10;99.90
13426;DHT22;6785;57.918;12.530;2022-12-18T09:23:37;3.10;99.90
13426;DHT22;6785;57.918;12.530;2022-12-18T09:26:04;3.10;99.90
13426;DHT22;6785;57.918;12.530;2022-12-18T09:28:30;3.20;99.90
13426;DHT22;6785;57.918;12.530;2022-12-18T09:30:57;3.10;99.90
13426;DHT22;6785;57.918;12.530;2022-12-18T09:33:24;3.10;99.90
13426;DHT22;6785;57.918;12.530;2022-12-18T09:35:51;3.20;99.90
13426;DHT22;6785;57.918;12.530;2022-12-18T09:38:18;3.20;99.90
13426;DHT22;6785;57.918;12.530;2022-12-18T09:40:47;3.20;99.90
13426;DHT22;6785;57.918;12.530;2022-12-18T09:43:17;3.20;99.90
13426;DHT22;6785;57.918;12.530;2022-12-18T09:45:47;3.20;99.90
13426;DHT22;6785;57.918;12.530;2022-12-18T09:48:20;3.30;99.90
13426;DHT22;6785;57.918;12.530;2022-12-18T09:50:50;3.20;99.90
13426;DHT22;6785;57.918;12.530;2022-12-18T09:53:21;3.20;99.90
13426;DHT22;6785;57.918;12.530;2022-12-18T09:55:51;3.30;99.90
13426;DHT22;6785;57.918;12.530;2022-12-18T09:58:22;3.30;99.90
13426;DHT22;6785;57.918;12.530;2022-12-18T10:00:51;3.20;99.90
13426;DHT22;6785;57.918;12.530;2022-12-18T10:03:18;3.30;99.90
13426;DHT22;6785;57.918;12.530;2022-12-18T10:05:54;3.30;99.90
13426;DHT22;6785;57.918;12.530;2022-12-18T10:08:29;3.30;99.90
13426;DHT22;6785;57.918;12.530;2022-12-18T10:11:12;3.40;99.90
13426;DHT22;6785;57.918;12.530;2022-12-18T10:13:46;3.40;99.90
13426;DHT22;6785;57.918;12.530;2022-12-18T10:16:19;3.40;99.90
13426;DHT22;6785;57.918;12.530;2022-12-18T10:19:13;3.40;99.90
13426;DHT22;6785;57.918;12.530;2022-12-18T10:21:49;3.40;99.90
13426;DHT22;6785;57.918;12.530;2022-12-18T10:24:26;3.40;99.90
13426;DHT22;6785;57.918;12.530;2022-12-18T10:27:04;3.30;99.90
13426;DHT22;6785;57.918;12.530;2022-12-18T10:29:35;3.40;99.90
13426;DHT22;6785;57.918;12.530;2022-12-18T10:32:02;3.40;99.90
13426;DHT22;6785;57.918;12.530;2022-12-18T10:34:28;3.40;99.90
13426;DHT22;6785;57.918;12.530;2022-12-18T10:36:55;3.50;99.90
13426;DHT22;6785;57.918;12.530;2022-12-18T10:39:24;3.50;99.90
13426;DHT22;6785;57.918;12.530;2022-12-18T10:41:52;3.50;99.90
13426;DHT22;6785;57.918;12.530;2022-12-18T10:44:33;3.50;99.90
13426;DHT22;6785;57.918;12.530;2022-12-18T10:47:04;3.50;99.90
13426;DHT22;6785;57.918;12.530;2022-12-18T10:49:33;3.50;99.90
13426;DHT22;6785;57.918;12.530;2022-12-18T10:52:07;3.50;99.90
13426;DHT22;6785;57.918;12.530;2022-12-18T10:54:38;3.50;99.90
13426;DHT22;6785;57.918;12.530;2022-12-18T10:57:15;3.50;99.90
13426;DHT22;6785;57.918;12.530;2022-12-18T10:59:52;3.50;99.90
13426;DHT22;6785;57.918;12.530;2022-12-18T11:02:28;3.50;99.90
13426;DHT22;6785;57.918;12.530;2022-12-18T11:04:59;3.50;99.90
13426;DHT22;6785;57.918;12.530;2022-12-18T11:07:47;3.50;99.90
13426;DHT22;6785;57.918;12.530;2022-12-18T11:10:16;3.50;99.90
13426;DHT22;6785;57.918;12.530;2022-12-18T11:12:44;3.50;99.90
13426;DHT22;6785;57.918;12.530;2022-12-18T11:15:16;3.50;99.90
13426;DHT22;6785;57.918;12.530;2022-12-18T11:17:47;3.50;99.90
13426;DHT22;6785;57.918;12.530;2022-12-18T11:20:23;3.50;99.90
13426;DHT22;6785;57.918;12.530;2022-12-18T11:22:55;3.40;99.90
13426;DHT22;6785;57.918;12.530;2022-12-18T11:25:23;3.40;99.90
13426;DHT22;6785;57.918;12.530;2022-12-18T11:27:52;3.50;99.90
13426;DHT22;6785;57.918;12.530;2022-12-18T11:30:26;3.50;99.90
13426;DHT22;6785;57.918;12.530;2022-12-18T11:33:04;3.50;99.90
13426;DHT22;6785;57.918;12.530;2022-12-18T11:35:39;3.60;99.90
13426;DHT22;6785;57.918;12.530;2022-12-18T11:38:16;3.50;99.90
13426;DHT22;6785;57.918;12.530;2022-12-18T11:40:47;3.50;99.90
13426;DHT22;6785;57.918;12.530;2022-12-18T11:43:19;3.40;99.90
13426;DHT22;6785;57.918;12.530;2022-12-18T11:45:54;3.50;99.90
13426;DHT22;6785;57.918;12.530;2022-12-18T11:48:24;3.50;99.90
13426;DHT22;6785;57.918;12.530;2022-12-18T11:50:55;3.50;99.90
13426;DHT22;6785;57.918;12.530;2022-12-18T11:53:23;3.50;99.90
13426;DHT22;6785;57.918;12.530;2022-12-18T11:56:00;3.40;99.90
13426;DHT22;6785;57.918;12.530;2022-12-18T11:58:43;3.40;99.90
13426;DHT22;6785;57.918;12.530;2022-12-18T12:01:19;3.40;99.90
13426;DHT22;6785;57.918;12.530;2022-12-18T12:04:11;3.50;99.90
13426;DHT22;6785;57.918;12.530;2022-12-18T12:06:52;3.40;99.90
13426;DHT22;6785;57.918;12.530;2022-12-18T12:09:26;3.40;99.90
13426;DHT22;6785;57.918;12.530;2022-12-18T12:12:09;3.50;99.90
13426;DHT22;6785;57.918;12.530;2022-12-18T12:14:46;3.50;99.90
13426;DHT22;6785;57.918;12.530;2022-12-18T12:17:25;3.50;99.90
13426;DHT22;6785;57.918;12.530;2022-12-18T12:19:58;3.40;99.90
13426;DHT22;6785;57.918;12.530;2022-12-18T12:22:34;3.40;99.90
13426;DHT22;6785;57.918;12.530;2022-12-18T12:25:15;3.30;99.90
13426;DHT22;6785;57.918;12.530;2022-12-18T12:27:52;3.30;99.90
13426;DHT22;6785;57.918;12.530;2022-12-18T12:30:29;3.20;99.90
13426;DHT22;6785;57.918;12.530;2022-12-18T12:33:13;3.30;99.90
13426;DHT22;6785;57.918;12.530;2022-12-18T12:35:47;3.20;99.90
13426;DHT22;6785;57.918;12.530;2022-12-18T12:38:20;3.30;99.90
13426;DHT22;6785;57.918;12.530;2022-12-18T12:40:51;3.30;99.90
13426;DHT22;6785;57.918;12.530;2022-12-18T12:43:24;3.30;99.90
13426;DHT22;6785;57.918;12.530;2022-12-18T12:45:54;3.40;99.90
13426;DHT22;6785;57.918;12.530;2022-12-18T12:48:35;3.30;99.90
13426;DHT22;6785;57.918;12.530;2022-12-18T12:51:08;3.40;99.90
13426;DHT22;6785;57.918;12.530;2022-12-18T12:53:38;3.40;99.90
13426;DHT22;6785;57.918;12.530;2022-12-18T12:56:09;3.50;99.90
13426;DHT22;6785;57.918;12.530;2022-12-18T12:58:45;3.50;99.90
13426;DHT22;6785;57.918;12.530;2022-12-18T13:01:19;3.40;99.90
13426;DHT22;6785;57.918;12.530;2022-12-18T13:03:59;3.50;99.90
13426;DHT22;6785;57.918;12.530;2022-12-18T13:06:37;3.50;99.90
13426;DHT22;6785;57.918;12.530;2022-12-18T13:09:07;3.50;99.90
13426;DHT22;6785;57.918;12.530;2022-12-18T13:11:38;3.50;99.90
13426;DHT22;6785;57.918;12.530;2022-12-18T13:14:26;3.40;99.90
13426;DHT22;6785;57.918;12.530;2022-12-18T13:20:18;3.50;99.90
13426;DHT22;6785;57.918;12.530;2022-12-18T13:22:46;3.40;99.90
13426;DHT22;6785;57.918;12.530;2022-12-18T13:25:28;3.40;99.90
13426;DHT22;6785;57.918;12.530;2022-12-18T13:28:00;3.40;99.90
13426;DHT22;6785;57.918;12.530;2022-12-18T13:30:51;3.30;99.90
13426;DHT22;6785;57.918;12.530;2022-12-18T13:33:40;3.30;99.90
13426;DHT22;6785;57.918;12.530;2022-12-18T13:36:16;3.30;99.90
13426;DHT22;6785;57.918;12.530;2022-12-18T13:38:43;3.20;99.90
13426;DHT22;6785;57.918;12.530;2022-12-18T13:41:25;3.20;99.90
13426;DHT22;6785;57.918;12.530;2022-12-18T13:43:53;3.20;99.90
13426;DHT22;6785;57.918;12.530;2022-12-18T13:46:23;3.20;99.90
13426;DHT22;6785;57.918;12.530;2022-12-18T13:48:53;3.20;99.90
13426;DHT22;6785;57.918;12.530;2022-12-18T13:51:23;3.20;99.90
13426;DHT22;6785;57.918;12.530;2022-12-18T13:53:52;3.20;99.90
13426;DHT22;6785;57.918;12.530;2022-12-18T13:56:23;3.20;99.90
13426;DHT22;6785;57.918;12.530;2022-12-18T13:59:20;3.20;99.90
13426;DHT22;6785;57.918;12.530;2022-12-18T14:01:51;3.20;99.90
13426;DHT22;6785;57.918;12.530;2022-12-18T14:04:24;3.20;99.90
13426;DHT22;6785;57.918;12.530;2022-12-18T14:06:56;3.20;99.90
13426;DHT22;6785;57.918;12.530;2022-12-18T14:09:26;3.30;99.90
13426;DHT22;6785;57.918;12.530;2022-12-18T14:11:54;3.30;99.90
13426;DHT22;6785;57.918;12.530;2022-12-18T14:14:44;3.30;99.90
13426;DHT22;6785;57.918;12.530;2022-12-18T14:17:13;3.30;99.90
13426;DHT22;6785;57.918;12.530;2022-12-18T14:19:44;3.30;99.90
13426;DHT22;6785;57.918;12.530;2022-12-18T14:22:17;3.30;99.90
13426;DHT22;6785;57.918;12.530;2022-12-18T14:24:45;3.30;99.90
13426;DHT22;6785;57.918;12.530;2022-12-18T14:27:21;3.30;99.90
13426;DHT22;6785;57.918;12.530;2022-12-18T14:29:48;3.20;99.90
13426;DHT22;6785;57.918;12.530;2022-12-18T14:32:16;3.20;99.90
13426;DHT22;6785;57.918;12.530;2022-12-18T14:34:45;3.20;99.90
13426;DHT22;6785;57.918;12.530;2022-12-18T14:37:15;3.20;99.90
13426;DHT22;6785;57.918;12.530;2022-12-18T14:39:55;3.30;99.90
13426;DHT22;6785;57.918;12.530;2022-12-18T14:42:23;3.20;99.90
13426;DHT22;6785;57.918;12.530;2022-12-18T14:47:53;3.10;99.90
13426;DHT22;6785;57.918;12.530;2022-12-18T14:50:20;3.10;99.90
13426;DHT22;6785;57.918;12.530;2022-12-18T14:52:48;3.10;99.90
13426;DHT22;6785;57.918;12.530;2022-12-18T14:55:16;3.10;99.90
13426;DHT22;6785;57.918;12.530;2022-12-18T14:57:43;3.10;99.90
13426;DHT22;6785;57.918;12.530;2022-12-18T15:00:17;3.10;99.90
13426;DHT22;6785;57.918;12.530;2022-12-18T15:02:45;3.10;99.90
13426;DHT22;6785;57.918;12.530;2022-12-18T15:05:18;3.20;99.90
13426;DHT22;6785;57.918;12.530;2022-12-18T15:07:48;3.20;99.90
13426;DHT22;6785;57.918;12.530;2022-12-18T15:10:17;3.20;99.90
13426;DHT22;6785;57.918;12.530;2022-12-18T15:12:45;3.30;99.90
13426;DHT22;6785;57.918;12.530;2022-12-18T15:15:44;3.30;99.90
13426;DHT22;6785;57.918;12.530;2022-12-18T15:18:13;3.30;99.90
13426;DHT22;6785;57.918;12.530;2022-12-18T15:20:44;3.20;99.90
13426;DHT22;6785;57.918;12.530;2022-12-18T15:23:18;3.30;99.90
13426;DHT22;6785;57.918;12.530;2022-12-18T15:25:46;3.20;99.90
13426;DHT22;6785;57.918;12.530;2022-12-18T15:28:18;3.30;99.90
13426;DHT22;6785;57.918;12.530;2022-12-18T15:31:03;3.30;99.90
13426;DHT22;6785;57.918;12.530;2022-12-18T15:33:32;3.30;99.90
13426;DHT22;6785;57.918;12.530;2022-12-18T15:36:01;3.30;99.90
13426;DHT22;6785;57.918;12.530;2022-12-18T15:38:29;3.30;99.90
13426;DHT22;6785;57.918;12.530;2022-12-18T15:40:57;3.40;99.90
13426;DHT22;6785;57.918;12.530;2022-12-18T15:43:26;3.30;99.90
13426;DHT22;6785;57.918;12.530;2022-12-18T15:46:04;3.30;99.90
13426;DHT22;6785;57.918;12.530;2022-12-18T15:48:33;3.30;99.90
13426;DHT22;6785;57.918;12.530;2022-12-18T15:51:00;3.30;99.90
13426;DHT22;6785;57.918;12.530;2022-12-18T15:53:31;3.30;99.90
13426;DHT22;6785;57.918;12.530;2022-12-18T15:55:58;3.30;99.90
13426;DHT22;6785;57.918;12.530;2022-12-18T15:58:42;3.30;99.90
13426;DHT22;6785;57.918;12.530;2022-12-18T16:01:10;3.30;99.90
13426;DHT22;6785;57.918;12.530;2022-12-18T16:03:37;3.30;99.90
13426;DHT22;6785;57.918;12.530;2022-12-18T16:06:04;3.40;99.90
13426;DHT22;6785;57.918;12.530;2022-12-18T16:08:32;3.30;99.90
13426;DHT22;6785;57.918;12.530;2022-12-18T16:11:00;3.40;99.90